createdAt,value
2023-02-19T00:01:53.788Z,101903.97
2023-02-19T00:04:22.096Z,101911.81
2023-02-19T00:06:48.840Z,101906.84
2023-02-19T00:09:19.749Z,101910.22
2023-02-19T00:11:46.574Z,101910.75
2023-02-19T00:14:23.610Z,101913.69
2023-02-19T00:16:50.383Z,101899.81
2023-02-19T00:19:19.682Z,101904.25
2023-02-19T00:21:46.521Z,101906.06
2023-02-19T00:24:16.236Z,101899.81
2023-02-19T00:26:50.571Z,101897.78
2023-02-19T00:29:22.014Z,101898.00
2023-02-19T00:31:51.336Z,101894.72
2023-02-19T00:34:20.935Z,101899.91
2023-02-19T00:36:51.812Z,101892.88
2023-02-19T00:39:24.604Z,101889.25
2023-02-19T00:41:51.201Z,101891.06
2023-02-19T00:44:17.796Z,101903.34
2023-02-19T00:46:51.034Z,101895.44
2023-02-19T00:49:22.946Z,101898.44
2023-02-19T00:51:55.824Z,101906.69
2023-02-19T00:54:24.969Z,101903.97
2023-02-19T00:57:15.506Z,101899.69
2023-02-19T00:59:45.540Z,101897.81
2023-02-19T01:02:12.129Z,101892.25
2023-02-19T01:04:38.832Z,101893.56
2023-02-19T01:07:05.400Z,101899.47
2023-02-19T01:09:37.565Z,101889.06
2023-02-19T01:12:07.530Z,101886.28
2023-02-19T01:14:36.651Z,101879.19
2023-02-19T01:17:06.718Z,101886.00
2023-02-19T01:19:38.064Z,101888.09
2023-02-19T01:22:07.398Z,101885.50
2023-02-19T01:24:34.029Z,101884.28
2023-02-19T01:27:00.875Z,101882.25
2023-02-19T01:29:27.507Z,101875.22
2023-02-19T01:34:43.215Z,101875.03
2023-02-19T01:37:12.413Z,101874.91
2023-02-19T01:39:39.482Z,101869.16
2023-02-19T01:42:15.011Z,101865.69
2023-02-19T01:44:47.731Z,101869.47
2023-02-19T01:47:19.845Z,101868.56
2023-02-19T01:49:58.634Z,101864.53
2023-02-19T01:52:40.915Z,101860.63
2023-02-19T01:55:14.513Z,101863.63
2023-02-19T01:57:54.278Z,101869.81
2023-02-19T02:00:29.127Z,101873.06
2023-02-19T02:03:01.280Z,101863.41
2023-02-19T02:05:54.830Z,101861.91
2023-02-19T02:08:30.658Z,101855.63
2023-02-19T02:10:58.005Z,101855.91
2023-02-19T02:13:24.763Z,101855.09
2023-02-19T02:16:13.913Z,101860.56
2023-02-19T02:18:49.366Z,101855.47
2023-02-19T02:21:53.486Z,101850.91
2023-02-19T02:24:47.883Z,101860.38
2023-02-19T02:27:41.229Z,101856.13
2023-02-19T02:30:33.053Z,101850.19
2023-02-19T02:33:12.403Z,101846.16
2023-02-19T02:36:17.242Z,101845.19
2023-02-19T02:38:49.215Z,101849.84
2023-02-19T02:41:16.350Z,101843.31
2023-02-19T02:43:42.978Z,101838.53
2023-02-19T02:46:18.573Z,101837.78
2023-02-19T02:49:02.905Z,101842.09
2023-02-19T02:51:36.407Z,101831.22
2023-02-19T02:54:28.786Z,101827.97
2023-02-19T02:56:59.097Z,101825.44
2023-02-19T02:59:39.753Z,101812.19
2023-02-19T03:02:17.663Z,101820.09
2023-02-19T03:05:08.438Z,101808.19
2023-02-19T03:10:40.118Z,101813.47
2023-02-19T03:13:23.222Z,101814.47
2023-02-19T03:16:24.586Z,101818.53
2023-02-19T03:18:54.539Z,101819.50
2023-02-19T03:21:23.942Z,101820.00
2023-02-19T03:23:51.265Z,101808.31
2023-02-19T03:26:19.312Z,101818.06
2023-02-19T03:28:50.248Z,101813.81
2023-02-19T03:31:26.173Z,101802.63
2023-02-19T03:33:59.919Z,101810.66
2023-02-19T03:36:41.396Z,101804.97
2023-02-19T03:39:12.966Z,101807.69
2023-02-19T03:41:50.775Z,101808.78
2023-02-19T03:44:52.941Z,101809.25
2023-02-19T03:47:30.417Z,101802.25
2023-02-19T03:50:15.725Z,101807.50
2023-02-19T03:53:17.114Z,101812.66
2023-02-19T03:56:31.858Z,101814.22
2023-02-19T03:59:24.020Z,101809.09
2023-02-19T04:02:09.106Z,101811.00
2023-02-19T04:04:52.741Z,101801.34
2023-02-19T04:07:19.650Z,101812.09
2023-02-19T04:09:49.984Z,101810.94
2023-02-19T04:12:18.233Z,101802.91
2023-02-19T04:15:02.228Z,101809.75
2023-02-19T04:17:55.724Z,101809.97
2023-02-19T04:20:32.099Z,101805.84
2023-02-19T04:23:17.476Z,101809.59
2023-02-19T04:25:50.680Z,101806.75
2023-02-19T04:28:24.101Z,101802.03
2023-02-19T04:30:50.558Z,101805.44
2023-02-19T04:33:17.239Z,101799.03
2023-02-19T04:35:52.695Z,101801.91
2023-02-19T04:38:21.640Z,101795.44
2023-02-19T04:40:48.238Z,101795.72
2023-02-19T04:43:26.766Z,101788.22
2023-02-19T04:45:58.829Z,101803.94
2023-02-19T04:48:36.892Z,101799.28
2023-02-19T04:51:10.501Z,101802.03
2023-02-19T04:53:42.581Z,101805.81
2023-02-19T04:56:20.146Z,101800.25
2023-02-19T04:58:46.693Z,101805.16
2023-02-19T05:01:18.049Z,101801.47
2023-02-19T05:03:47.670Z,101802.22
2023-02-19T05:06:17.370Z,101802.47
2023-02-19T05:08:54.687Z,101806.44
2023-02-19T05:11:21.284Z,101804.84
2023-02-19T05:13:55.785Z,101801.72
2023-02-19T05:16:32.203Z,101796.56
2023-02-19T05:18:59.041Z,101804.47
2023-02-19T05:21:27.835Z,101806.19
2023-02-19T05:23:54.419Z,101807.16
2023-02-19T05:26:30.870Z,101800.06
2023-02-19T05:29:01.465Z,101800.72
2023-02-19T05:31:30.643Z,101798.41
2023-02-19T05:33:57.487Z,101804.47
2023-02-19T05:36:27.038Z,101797.44
2023-02-19T05:38:55.486Z,101796.47
2023-02-19T05:41:30.758Z,101787.63
2023-02-19T05:44:00.698Z,101792.03
2023-02-19T05:46:35.747Z,101788.16
2023-02-19T05:49:02.418Z,101788.34
2023-02-19T05:51:29.273Z,101784.69
2023-02-19T05:54:08.737Z,101788.44
2023-02-19T05:56:45.229Z,101787.59
2023-02-19T05:59:24.961Z,101779.25
2023-02-19T06:01:53.112Z,101778.88
2023-02-19T06:04:22.511Z,101781.44
2023-02-19T06:06:49.534Z,101780.53
2023-02-19T06:09:18.860Z,101782.22
2023-02-19T06:11:54.543Z,101781.44
2023-02-19T06:14:24.354Z,101781.97
2023-02-19T06:16:50.969Z,101783.47
2023-02-19T06:19:17.553Z,101779.06
2023-02-19T06:21:56.718Z,101784.00
2023-02-19T06:24:24.415Z,101779.41
2023-02-19T06:26:53.313Z,101781.00
2023-02-19T06:29:26.108Z,101777.81
2023-02-19T06:31:52.730Z,101779.34
2023-02-19T06:34:21.642Z,101784.72
2023-02-19T06:37:02.553Z,101784.19
2023-02-19T06:39:29.104Z,101790.50
2023-02-19T06:41:56.672Z,101778.63
2023-02-19T06:44:23.517Z,101788.88
2023-02-19T06:46:55.387Z,101784.59
2023-02-19T06:49:31.346Z,101784.31
2023-02-19T06:52:04.499Z,101782.41
2023-02-19T06:54:37.251Z,101780.22
2023-02-19T06:57:17.986Z,101780.28
2023-02-19T06:59:55.774Z,101773.00
2023-02-19T07:02:24.612Z,101779.75
2023-02-19T07:04:56.206Z,101780.34
2023-02-19T07:07:30.149Z,101788.38
2023-02-19T07:10:10.438Z,101779.28
2023-02-19T07:12:39.334Z,101769.25
2023-02-19T07:15:17.638Z,101767.94
2023-02-19T07:17:47.250Z,101767.56
2023-02-19T07:20:15.142Z,101773.53
2023-02-19T07:22:41.737Z,101780.94
2023-02-19T07:25:17.547Z,101778.34
2023-02-19T07:30:24.615Z,101771.69
2023-02-19T07:32:56.259Z,101771.69
2023-02-19T07:35:29.935Z,101773.84
2023-02-19T07:38:02.126Z,101761.09
2023-02-19T07:40:28.810Z,101766.59
2023-02-19T07:42:57.181Z,101772.63
2023-02-19T07:45:23.748Z,101762.25
2023-02-19T07:47:57.394Z,101780.78
2023-02-19T07:50:26.680Z,101785.41
2023-02-19T07:52:56.258Z,101770.97
2023-02-19T07:55:22.838Z,101776.91
2023-02-19T07:57:55.028Z,101775.50
2023-02-19T08:00:21.612Z,101775.19
2023-02-19T08:02:48.191Z,101775.41
2023-02-19T08:05:14.849Z,101772.50
2023-02-19T08:07:45.528Z,101770.44
2023-02-19T08:10:13.498Z,101766.94
2023-02-19T08:12:40.209Z,101774.59
2023-02-19T08:15:09.436Z,101779.66
2023-02-19T08:17:43.604Z,101774.94
2023-02-19T08:20:15.891Z,101781.47
2023-02-19T08:22:42.533Z,101776.53
2023-02-19T08:25:18.854Z,101772.81
2023-02-19T08:27:56.537Z,101780.72
2023-02-19T08:30:23.513Z,101775.41
2023-02-19T08:32:52.663Z,101778.22
2023-02-19T08:35:32.483Z,101779.25
2023-02-19T08:38:12.857Z,101785.88
2023-02-19T08:40:46.163Z,101790.13
2023-02-19T08:43:16.240Z,101782.91
2023-02-19T08:45:45.097Z,101787.44
2023-02-19T08:48:15.968Z,101786.81
2023-02-19T08:50:42.592Z,101775.41
2023-02-19T08:53:15.194Z,101783.31
2023-02-19T08:55:43.957Z,101784.03
2023-02-19T08:58:19.210Z,101785.44
2023-02-19T09:01:14.393Z,101782.47
2023-02-19T09:03:41.668Z,101778.09
2023-02-19T09:06:08.551Z,101774.78
2023-02-19T09:08:35.686Z,101769.41
2023-02-19T09:11:07.516Z,101771.91
2023-02-19T09:13:34.391Z,101776.91
2023-02-19T09:16:08.041Z,101775.66
2023-02-19T09:18:34.913Z,101774.88
2023-02-19T09:21:07.316Z,101781.03
2023-02-19T09:23:36.651Z,101783.06
2023-02-19T09:26:08.537Z,101779.41
2023-02-19T09:28:35.847Z,101784.25
2023-02-19T09:31:07.346Z,101784.47
2023-02-19T09:33:33.973Z,101782.13
2023-02-19T09:36:06.805Z,101780.13
2023-02-19T09:38:36.352Z,101784.47
2023-02-19T09:41:33.270Z,101779.59
2023-02-19T09:44:04.594Z,101792.81
2023-02-19T09:46:47.446Z,101780.41
2023-02-19T09:49:36.191Z,101782.06
2023-02-19T09:52:14.885Z,101771.00
2023-02-19T09:54:42.582Z,101766.53
2023-02-19T09:57:20.960Z,101775.66
2023-02-19T09:59:53.486Z,101762.91
2023-02-19T10:02:32.426Z,101767.38
2023-02-19T10:05:12.588Z,101762.75
2023-02-19T10:07:52.984Z,101756.97
2023-02-19T10:10:22.343Z,101753.47
2023-02-19T10:12:53.265Z,101750.19
2023-02-19T10:15:32.103Z,101749.88
2023-02-19T10:17:59.798Z,101744.06
2023-02-19T10:20:32.973Z,101735.13
2023-02-19T10:23:09.093Z,101737.94
2023-02-19T10:25:46.854Z,101733.47
2023-02-19T10:28:17.643Z,101732.44
2023-02-19T10:30:47.867Z,101737.56
2023-02-19T10:33:16.880Z,101725.00
2023-02-19T10:36:05.583Z,101724.97
2023-02-19T10:38:45.495Z,101724.31
2023-02-19T10:41:21.689Z,101729.13
2023-02-19T10:44:19.034Z,101733.06
2023-02-19T10:46:58.575Z,101732.19
2023-02-19T10:49:40.199Z,101731.53
2023-02-19T10:52:21.098Z,101724.59
2023-02-19T10:54:59.650Z,101713.34
2023-02-19T11:00:15.280Z,101714.63
2023-02-19T11:02:43.934Z,101707.78
2023-02-19T11:05:13.319Z,101704.69
2023-02-19T11:07:55.857Z,101703.69
2023-02-19T11:10:26.280Z,101698.00
2023-02-19T11:12:59.134Z,101681.72
2023-02-19T11:15:42.660Z,101687.72
2023-02-19T11:18:14.110Z,101685.09
2023-02-19T11:21:00.094Z,101683.13
2023-02-19T11:23:34.189Z,101677.69
2023-02-19T11:26:11.653Z,101663.31
2023-02-19T11:28:45.412Z,101665.41
2023-02-19T11:31:26.896Z,101665.47
2023-02-19T11:34:24.210Z,101666.13
2023-02-19T11:37:10.930Z,101671.16
2023-02-19T11:39:46.902Z,101654.59
2023-02-19T11:42:41.445Z,101662.44
2023-02-19T11:45:35.782Z,101648.41
2023-02-19T11:48:42.675Z,101646.13
2023-02-19T11:51:17.074Z,101652.56
2023-02-19T11:54:18.949Z,101647.47
2023-02-19T11:57:01.510Z,101652.50
2023-02-19T11:59:47.462Z,101642.50
2023-02-19T12:02:28.668Z,101643.50
2023-02-19T12:05:18.375Z,101644.16
2023-02-19T12:08:22.397Z,101635.38
2023-02-19T12:11:36.625Z,101634.09
2023-02-19T12:14:34.087Z,101634.59
2023-02-19T12:17:04.012Z,101625.78
2023-02-19T12:19:36.438Z,101625.88
2023-02-19T12:22:24.776Z,101616.81
2023-02-19T12:25:21.634Z,101622.81
2023-02-19T12:28:11.711Z,101625.16
2023-02-19T12:31:01.853Z,101623.31
2023-02-19T12:33:49.632Z,101620.91
2023-02-19T12:36:37.651Z,101619.25
2023-02-19T12:39:28.446Z,101609.22
2023-02-19T12:42:17.966Z,101619.09
2023-02-19T12:45:10.493Z,101601.44
2023-02-19T12:47:58.818Z,101599.34
2023-02-19T12:50:27.113Z,101594.97
2023-02-19T12:53:39.578Z,101601.75
2023-02-19T12:56:33.440Z,101606.97
2023-02-19T12:59:02.233Z,101607.69
2023-02-19T13:01:35.922Z,101600.69
2023-02-19T13:04:44.470Z,101599.94
2023-02-19T13:07:42.058Z,101598.53
2023-02-19T13:10:44.927Z,101605.66
2023-02-19T13:13:31.322Z,101596.19
2023-02-19T13:16:30.083Z,101594.63
2023-02-19T13:19:01.174Z,101612.75
2023-02-19T13:21:56.489Z,101600.38
2023-02-19T13:24:35.093Z,101595.63
2023-02-19T13:27:25.781Z,101587.84
2023-02-19T13:30:11.422Z,101580.94
2023-02-19T13:33:19.288Z,101578.38
2023-02-19T13:36:01.271Z,101574.16
2023-02-19T13:38:30.192Z,101574.00
2023-02-19T13:40:58.783Z,101574.47
2023-02-19T13:43:31.025Z,101565.22
2023-02-19T13:46:04.827Z,101562.97
2023-02-19T13:48:36.896Z,101562.78
2023-02-19T13:51:13.088Z,101563.88
2023-02-19T13:53:42.858Z,101558.47
2023-02-19T13:56:38.256Z,101553.81
2023-02-19T13:59:42.260Z,101556.81
2023-02-19T14:02:29.704Z,101558.63
2023-02-19T14:05:03.565Z,101551.38
2023-02-19T14:07:57.369Z,101546.31
2023-02-19T14:10:54.110Z,101552.78
2023-02-19T14:13:56.121Z,101539.59
2023-02-19T14:16:49.845Z,101547.66
2023-02-19T14:19:45.777Z,101546.31
2023-02-19T14:22:53.846Z,101545.31
2023-02-19T14:25:52.630Z,101540.06
2023-02-19T14:28:40.446Z,101531.50
2023-02-19T14:31:22.804Z,101539.69
2023-02-19T14:34:16.185Z,101539.69
2023-02-19T14:37:00.735Z,101544.06
2023-02-19T14:39:31.780Z,101544.59
2023-02-19T14:42:01.641Z,101542.34
2023-02-19T14:44:53.170Z,101535.97
2023-02-19T14:47:22.933Z,101531.56
2023-02-19T14:50:03.855Z,101525.81
2023-02-19T14:52:37.980Z,101526.72
2023-02-19T14:55:29.461Z,101523.59
2023-02-19T14:57:59.912Z,101525.25
2023-02-19T15:00:48.414Z,101519.94
2023-02-19T15:03:28.841Z,101524.97
2023-02-19T15:06:23.618Z,101522.66
2023-02-19T15:08:59.358Z,101518.47
2023-02-19T15:11:35.616Z,101521.69
2023-02-19T15:14:32.464Z,101514.09
2023-02-19T15:17:17.047Z,101512.94
2023-02-19T15:19:45.248Z,101504.66
2023-02-19T15:22:32.721Z,101503.44
2023-02-19T15:25:07.056Z,101505.94
2023-02-19T15:27:38.890Z,101513.59
2023-02-19T15:30:24.341Z,101516.03
2023-02-19T15:32:59.738Z,101517.63
2023-02-19T15:35:40.888Z,101524.47
2023-02-19T15:38:18.238Z,101530.00
2023-02-19T15:40:52.930Z,101532.38
2023-02-19T15:43:44.639Z,101530.66
2023-02-19T15:46:23.069Z,101526.03
2023-02-19T15:48:58.782Z,101523.13
2023-02-19T15:54:39.267Z,101514.44
2023-02-19T15:57:23.665Z,101522.78
2023-02-19T16:00:41.694Z,101519.66
2023-02-19T16:03:18.138Z,101517.88
2023-02-19T16:05:45.425Z,101516.25
2023-02-19T16:08:17.589Z,101527.03
2023-02-19T16:10:58.001Z,101542.09
2023-02-19T16:13:31.129Z,101536.06
2023-02-19T16:16:09.940Z,101529.91
2023-02-19T16:18:37.214Z,101535.78
2023-02-19T16:21:18.461Z,101530.00
2023-02-19T16:23:55.402Z,101536.16
2023-02-19T16:26:25.279Z,101539.00
2023-02-19T16:28:57.168Z,101548.59
2023-02-19T16:31:24.347Z,101544.66
2023-02-19T16:33:51.419Z,101551.09
2023-02-19T16:36:33.335Z,101544.31
2023-02-19T16:39:17.888Z,101544.03
2023-02-19T16:41:49.408Z,101556.13
2023-02-19T16:44:25.251Z,101557.63
2023-02-19T16:47:09.770Z,101568.22
2023-02-19T16:49:38.705Z,101564.25
2023-02-19T16:52:11.587Z,101569.56
2023-02-19T16:54:40.633Z,101582.16
2023-02-19T16:57:16.393Z,101589.78
2023-02-19T16:59:49.147Z,101589.09
2023-02-19T17:02:31.038Z,101586.13
2023-02-19T17:05:00.647Z,101587.16
2023-02-19T17:07:29.881Z,101592.28
2023-02-19T17:09:56.430Z,101601.69
2023-02-19T17:12:23.075Z,101596.75
2023-02-19T17:14:49.681Z,101610.47
2023-02-19T17:17:16.201Z,101606.53
2023-02-19T17:19:45.076Z,101600.41
2023-02-19T17:22:14.200Z,101603.38
2023-02-19T17:24:44.915Z,101609.66
2023-02-19T17:27:14.730Z,101612.66
2023-02-19T17:29:58.353Z,101610.47
2023-02-19T17:32:27.631Z,101611.47
2023-02-19T17:34:54.350Z,101606.19
2023-02-19T17:37:20.978Z,101612.97
2023-02-19T17:39:50.702Z,101618.78
2023-02-19T17:42:19.825Z,101634.47
2023-02-19T17:44:47.754Z,101636.78
2023-02-19T17:47:14.377Z,101643.56
2023-02-19T17:49:47.168Z,101660.72
2023-02-19T17:52:25.509Z,101665.84
2023-02-19T17:54:52.098Z,101666.34
2023-02-19T17:57:18.875Z,101675.09
2023-02-19T17:59:45.604Z,101672.94
2023-02-19T18:02:12.193Z,101679.69
2023-02-19T18:04:41.132Z,101681.34
2023-02-19T18:07:12.576Z,101688.78
2023-02-19T18:09:39.192Z,101695.41
2023-02-19T18:12:07.803Z,101699.56
2023-02-19T18:14:39.392Z,101686.63
2023-02-19T18:17:06.834Z,101693.22
2023-02-19T18:19:33.426Z,101716.66
2023-02-19T18:21:59.988Z,101704.09
2023-02-19T18:24:26.598Z,101714.34
2023-02-19T18:26:53.209Z,101716.31
2023-02-19T18:29:25.936Z,101712.13
2023-02-19T18:31:59.875Z,101717.75
2023-02-19T18:34:27.543Z,101710.28
2023-02-19T18:37:00.002Z,101704.44
2023-02-19T18:39:26.566Z,101700.47
2023-02-19T18:41:55.908Z,101698.44
2023-02-19T18:44:24.638Z,101692.47
2023-02-19T18:46:51.679Z,101698.72
2023-02-19T18:49:20.198Z,101687.44
2023-02-19T18:51:50.001Z,101688.75
2023-02-19T18:54:16.646Z,101694.47
2023-02-19T18:56:47.296Z,101689.16
2023-02-19T18:59:19.924Z,101688.28
2023-02-19T19:01:54.844Z,101678.53
2023-02-19T19:04:21.756Z,101684.13
2023-02-19T19:06:48.369Z,101704.22
2023-02-19T19:09:14.950Z,101711.59
2023-02-19T19:11:48.193Z,101700.06
2023-02-19T19:14:17.119Z,101703.00
2023-02-19T19:16:46.494Z,101698.41
2023-02-19T19:19:22.340Z,101702.66
2023-02-19T19:22:01.159Z,101701.31
2023-02-19T19:24:27.760Z,101709.38
2023-02-19T19:26:54.340Z,101713.47
2023-02-19T19:29:21.857Z,101722.03
2023-02-19T19:31:59.972Z,101721.38
2023-02-19T19:34:35.449Z,101725.84
2023-02-19T19:37:04.743Z,101731.25
2023-02-19T19:39:34.003Z,101737.81
2023-02-19T19:42:00.619Z,101738.56
2023-02-19T19:44:27.297Z,101746.47
2023-02-19T19:46:53.876Z,101752.06
2023-02-19T19:49:22.165Z,101749.59
2023-02-19T19:51:49.690Z,101755.00
2023-02-19T19:54:16.363Z,101758.31
2023-02-19T19:56:45.459Z,101762.91
2023-02-19T19:59:17.242Z,101759.28
2023-02-19T20:01:53.897Z,101761.41
2023-02-19T20:07:13.718Z,101770.97
2023-02-19T20:09:49.228Z,101776.38
2023-02-19T20:12:17.084Z,101788.50
2023-02-19T20:14:49.958Z,101798.34
2023-02-19T20:17:22.002Z,101796.50
2023-02-19T20:19:55.319Z,101807.47
2023-02-19T20:22:23.698Z,101795.66
2023-02-19T20:24:54.944Z,101792.75
2023-02-19T20:27:22.601Z,101789.13
2023-02-19T20:29:57.242Z,101787.34
2023-02-19T20:32:40.598Z,101804.75
2023-02-19T20:35:27.266Z,101813.75
2023-02-19T20:38:00.352Z,101827.81
2023-02-19T20:40:28.068Z,101827.97
2023-02-19T20:43:00.663Z,101820.50
2023-02-19T20:45:28.247Z,101819.19
2023-02-19T20:47:54.896Z,101823.44
2023-02-19T20:50:28.950Z,101828.63
2023-02-19T20:52:58.323Z,101839.00
2023-02-19T20:55:32.939Z,101838.06
2023-02-19T20:58:02.296Z,101838.47
2023-02-19T21:00:31.336Z,101850.50
2023-02-19T21:03:07.704Z,101859.19
2023-02-19T21:06:09.423Z,101866.31
2023-02-19T21:08:41.004Z,101883.69
2023-02-19T21:11:09.677Z,101866.66
2023-02-19T21:13:52.917Z,101867.19
2023-02-19T21:16:34.014Z,101860.97
2023-02-19T21:19:03.944Z,101865.28
2023-02-19T21:21:34.414Z,101868.47
2023-02-19T21:24:04.394Z,101859.03
2023-02-19T21:26:38.235Z,101844.78
2023-02-19T21:29:06.081Z,101858.50
2023-02-19T21:32:01.739Z,101857.94
2023-02-19T21:34:52.374Z,101869.03
2023-02-19T21:37:29.073Z,101873.28
2023-02-19T21:40:01.645Z,101869.69
2023-02-19T21:42:29.090Z,101866.94
2023-02-19T21:44:58.316Z,101863.75
2023-02-19T21:47:24.907Z,101862.38
2023-02-19T21:49:57.120Z,101868.59
2023-02-19T21:52:23.708Z,101883.16
2023-02-19T21:55:09.161Z,101890.34
2023-02-19T21:57:56.138Z,101884.09
2023-02-19T22:00:43.718Z,101885.69
2023-02-19T22:03:34.853Z,101894.19
2023-02-19T22:06:24.208Z,101906.88
2023-02-19T22:09:05.455Z,101901.06
2023-02-19T22:11:55.918Z,101904.41
2023-02-19T22:14:24.832Z,101896.94
2023-02-19T22:17:13.586Z,101904.63
2023-02-19T22:19:45.141Z,101901.09
2023-02-19T22:22:14.025Z,101902.44
2023-02-19T22:24:45.685Z,101902.25
2023-02-19T22:27:18.714Z,101895.06
2023-02-19T22:29:47.844Z,101883.59
2023-02-19T22:32:14.554Z,101885.03
2023-02-19T22:34:51.861Z,101886.84
2023-02-19T22:37:29.141Z,101899.47
2023-02-19T22:40:00.152Z,101901.97
2023-02-19T22:42:35.658Z,101897.53
2023-02-19T22:45:22.497Z,101907.03
2023-02-19T22:47:49.147Z,101919.97
2023-02-19T22:50:23.210Z,101914.25
2023-02-19T22:52:50.483Z,101907.25
2023-02-19T22:55:22.489Z,101895.31
2023-02-19T22:57:50.808Z,101902.78
2023-02-19T23:00:21.272Z,101897.22
2023-02-19T23:02:54.396Z,101885.22
2023-02-19T23:05:21.851Z,101885.75
2023-02-19T23:07:50.997Z,101885.91
2023-02-19T23:10:31.840Z,101892.56
2023-02-19T23:13:17.875Z,101898.22
2023-02-19T23:15:47.483Z,101885.69
2023-02-19T23:18:24.941Z,101887.72
2023-02-19T23:20:51.577Z,101893.53
2023-02-19T23:23:21.161Z,101895.81
2023-02-19T23:25:47.718Z,101892.56
2023-02-19T23:28:28.685Z,101898.72
2023-02-19T23:30:55.334Z,101894.91
2023-02-19T23:33:22.086Z,101898.06
2023-02-19T23:35:48.644Z,101892.22
2023-02-19T23:38:19.231Z,101880.56
2023-02-19T23:40:56.149Z,101886.78
2023-02-19T23:43:28.413Z,101890.19
2023-02-19T23:45:55.102Z,101887.53
2023-02-19T23:48:21.748Z,101885.31
2023-02-19T23:50:48.316Z,101881.19
2023-02-19T23:53:14.903Z,101883.59
2023-02-19T23:55:41.511Z,101881.81
2023-02-19T23:58:11.109Z,101886.34
